createdAt,value
2019-03-04T00:07:25.394Z,8.10
2019-03-04T00:22:44.263Z,7.60
2019-03-04T01:52:44.570Z,6.00
2019-03-04T03:47:53.933Z,7.40
2019-03-04T03:50:24.718Z,7.40
2019-03-04T03:52:55.205Z,7.50
2019-03-04T03:55:26.056Z,7.50
2019-03-04T03:57:56.558Z,7.40
2019-03-04T04:00:27.391Z,7.50
2019-03-04T04:02:58.046Z,7.60
2019-03-04T04:05:28.539Z,7.70
2019-03-04T04:07:59.074Z,7.80
2019-03-04T04:10:29.541Z,7.90
2019-03-04T04:13:00.416Z,7.90
2019-03-04T04:15:30.860Z,7.90
2019-03-04T04:18:01.424Z,8.00
2019-03-04T04:20:31.866Z,8.10
2019-03-04T04:23:02.617Z,8.10
2019-03-04T04:25:33.079Z,8.20
2019-03-04T04:28:05.900Z,8.10
2019-03-04T04:30:37.702Z,8.30
2019-03-04T04:33:08.189Z,8.40
2019-03-04T04:35:38.743Z,8.40
2019-03-04T04:38:09.316Z,8.40
2019-03-04T04:40:39.802Z,8.40
2019-03-04T04:43:10.281Z,8.50
2019-03-04T04:45:40.726Z,8.50
2019-03-04T04:48:11.233Z,8.40
2019-03-04T04:50:41.782Z,8.30
2019-03-04T04:53:12.228Z,8.10
2019-03-04T04:55:42.728Z,8.00
2019-03-04T04:58:13.219Z,7.90
2019-03-04T05:00:43.676Z,7.80
2019-03-04T05:03:14.179Z,7.70
2019-03-04T05:05:44.824Z,7.70
2019-03-04T05:08:15.307Z,7.60
2019-03-04T05:10:45.798Z,7.60
2019-03-04T05:13:16.316Z,7.50
2019-03-04T05:15:47.049Z,7.50
2019-03-04T05:18:17.838Z,7.50
2019-03-04T05:20:48.412Z,7.50
2019-03-04T05:23:21.560Z,7.50
2019-03-04T05:25:52.056Z,7.40
2019-03-04T05:28:22.825Z,7.30
2019-03-04T05:30:53.297Z,7.30
2019-03-04T05:33:23.727Z,7.20
2019-03-04T05:35:54.237Z,7.30
2019-03-04T05:38:24.719Z,7.30
2019-03-04T05:40:55.218Z,7.30
2019-03-04T05:43:25.685Z,7.40
2019-03-04T05:45:56.475Z,7.30
2019-03-04T05:48:26.950Z,7.20
2019-03-04T05:50:57.464Z,7.00
2019-03-04T05:53:28.014Z,6.90
2019-03-04T05:55:58.596Z,6.70
2019-03-04T05:58:29.047Z,6.50
2019-03-04T06:01:19.043Z,6.40
2019-03-04T06:03:53.886Z,6.30
2019-03-04T06:06:41.972Z,6.10
2019-03-04T06:09:13.590Z,6.00
2019-03-04T06:11:44.268Z,6.00
2019-03-04T06:14:15.277Z,6.00
2019-03-04T06:16:47.479Z,6.60
2019-03-04T06:19:18.286Z,7.60
2019-03-04T06:21:48.937Z,8.30
2019-03-04T06:24:19.449Z,9.30
2019-03-04T06:26:49.983Z,9.70
2019-03-04T06:29:21.078Z,9.90
2019-03-04T06:31:51.611Z,10.10
2019-03-04T06:34:24.734Z,10.30
2019-03-04T06:36:55.217Z,10.50
2019-03-04T06:39:25.683Z,10.80
2019-03-04T06:41:56.494Z,10.90
2019-03-04T06:44:26.942Z,10.90
2019-03-04T06:46:57.454Z,11.00
2019-03-04T06:49:27.928Z,11.00
2019-03-04T06:51:58.389Z,11.00
2019-03-04T06:54:38.879Z,10.90
2019-03-04T06:57:14.541Z,10.70
2019-03-04T07:00:10.379Z,10.40
2019-03-04T07:02:46.727Z,10.10
2019-03-04T07:05:46.171Z,9.90
2019-03-04T07:08:40.368Z,9.90
2019-03-04T07:11:11.088Z,9.90
2019-03-04T07:13:41.609Z,9.90
2019-03-04T07:16:12.105Z,9.90
2019-03-04T07:18:42.761Z,9.90
2019-03-04T07:21:13.244Z,10.00
2019-03-04T07:23:43.712Z,10.00
2019-03-04T07:26:14.697Z,10.00
2019-03-04T07:28:45.255Z,9.90
2019-03-04T07:31:15.952Z,9.70
2019-03-04T07:33:46.641Z,9.50
2019-03-04T07:36:17.211Z,9.30
2019-03-04T07:38:56.380Z,9.10
2019-03-04T07:41:28.433Z,8.70
2019-03-04T07:44:07.282Z,8.40
2019-03-04T07:46:38.769Z,8.00
2019-03-04T07:49:14.334Z,7.70
2019-03-04T07:51:52.993Z,7.50
2019-03-04T07:54:23.637Z,7.20
2019-03-04T07:56:54.244Z,7.00
2019-03-04T07:59:24.913Z,6.70
2019-03-04T08:01:55.216Z,6.50
2019-03-04T08:04:27.701Z,6.20
2019-03-04T08:07:43.335Z,5.90
2019-03-04T08:10:34.929Z,5.70
2019-03-04T08:13:28.249Z,5.50
2019-03-04T08:15:59.083Z,5.30
2019-03-04T08:18:29.587Z,5.30
2019-03-04T08:21:00.026Z,5.20
2019-03-04T08:23:31.445Z,5.10
2019-03-04T08:26:02.137Z,5.10
2019-03-04T08:28:33.022Z,5.10
2019-03-04T08:31:03.675Z,5.20
2019-03-04T08:33:35.439Z,5.20
2019-03-04T08:36:05.928Z,5.20
2019-03-04T08:38:36.556Z,5.20
2019-03-04T08:41:07.098Z,5.30
2019-03-04T08:43:39.958Z,5.30
2019-03-04T08:46:12.976Z,5.40
2019-03-04T08:48:44.087Z,5.50
2019-03-04T08:51:18.185Z,5.50
2019-03-04T08:53:58.548Z,5.50
2019-03-04T08:56:36.066Z,5.70
2019-03-04T08:59:13.964Z,5.80
2019-03-04T09:01:55.666Z,5.80
2019-03-04T09:04:27.495Z,5.80
2019-03-04T09:07:25.832Z,5.80
2019-03-04T09:10:01.059Z,5.80
2019-03-04T09:12:35.873Z,5.90
2019-03-04T09:15:15.927Z,6.00
2019-03-04T09:17:49.783Z,6.00
2019-03-04T09:20:38.427Z,6.10
2019-03-04T09:23:33.157Z,6.20
2019-03-04T09:26:13.942Z,6.20
2019-03-04T09:28:45.120Z,6.30
2019-03-04T09:31:15.640Z,6.30
2019-03-04T09:33:48.775Z,6.40
2019-03-04T09:36:19.266Z,6.40
2019-03-04T09:38:49.717Z,6.50
2019-03-04T09:44:39.401Z,6.40
2019-03-04T09:47:18.637Z,6.30
2019-03-04T09:49:51.295Z,6.20
2019-03-04T09:52:25.357Z,6.20
2019-03-04T09:54:56.097Z,6.20
2019-03-04T10:04:30.686Z,6.20
2019-03-04T10:07:29.950Z,6.20
2019-03-04T10:10:40.734Z,6.20
2019-03-04T10:13:25.442Z,6.20
2019-03-04T11:40:51.870Z,7.10
2019-03-04T11:44:20.123Z,7.10
2019-03-04T11:47:11.308Z,7.10
2019-03-04T11:49:57.288Z,7.10
2019-03-04T11:52:52.859Z,7.20
2019-03-04T12:23:45.887Z,6.70
2019-03-04T12:40:48.040Z,9.40
2019-03-04T12:43:18.809Z,9.70
2019-03-04T12:45:49.264Z,9.90
2019-03-04T12:48:19.744Z,9.90
2019-03-04T12:50:50.402Z,9.90
2019-03-04T12:53:20.905Z,10.10
2019-03-04T12:55:51.661Z,10.20
2019-03-04T12:58:22.664Z,10.00
2019-03-04T13:00:53.307Z,10.40
2019-03-04T13:03:24.064Z,10.10
2019-03-04T13:05:59.038Z,10.10
2019-03-04T13:08:29.476Z,10.00
2019-03-04T13:10:59.959Z,10.00
2019-03-04T13:13:30.629Z,10.20
2019-03-04T13:16:02.677Z,10.10
2019-03-04T13:18:33.154Z,10.50
2019-03-04T13:21:03.946Z,10.80
2019-03-04T13:23:34.401Z,11.00
2019-03-04T13:26:05.165Z,11.10
2019-03-04T13:28:35.708Z,10.90
2019-03-04T13:31:06.882Z,10.40
2019-03-04T13:33:37.424Z,9.80
2019-03-04T13:36:09.036Z,9.90
2019-03-04T13:38:39.657Z,9.60
2019-03-04T13:41:10.242Z,9.40
2019-03-04T13:43:41.262Z,8.60
2019-03-04T13:46:11.860Z,8.20
2019-03-04T13:48:42.740Z,8.10
2019-03-04T13:51:14.829Z,8.80
2019-03-04T13:53:45.494Z,9.70
2019-03-04T13:56:19.524Z,10.10
2019-03-04T13:58:50.059Z,9.80
2019-03-04T14:01:20.605Z,9.40
2019-03-04T14:03:51.729Z,8.90
2019-03-04T14:06:24.204Z,8.60
2019-03-04T14:09:01.286Z,8.70
2019-03-04T14:11:32.980Z,8.60
2019-03-04T14:14:05.041Z,8.50
2019-03-04T14:16:35.943Z,8.10
2019-03-04T14:19:06.518Z,7.70
2019-03-04T14:21:37.570Z,7.50
2019-03-04T14:24:09.084Z,7.60
2019-03-04T14:26:39.796Z,7.70
2019-03-04T14:29:10.270Z,8.00
2019-03-04T14:31:40.902Z,8.30
2019-03-04T14:34:12.310Z,8.40
2019-03-04T14:36:44.817Z,8.30
2019-03-04T14:39:16.172Z,8.00
2019-03-04T14:41:47.483Z,7.90
2019-03-04T14:44:18.079Z,7.90
2019-03-04T14:46:48.803Z,7.70
2019-03-04T14:49:22.491Z,7.60
2019-03-04T14:51:53.185Z,7.50
2019-03-04T14:54:24.059Z,7.30
2019-03-04T14:56:54.748Z,7.30
2019-03-04T14:59:25.986Z,7.20
2019-03-04T15:01:57.211Z,7.20
2019-03-04T15:04:30.806Z,7.00
2019-03-04T15:07:03.310Z,6.70
2019-03-04T15:09:48.955Z,6.20
2019-03-04T15:12:14.205Z,5.80
2019-03-04T15:14:44.564Z,5.60
2019-03-04T15:17:28.205Z,5.40
2019-03-04T15:20:09.682Z,5.20
2019-03-04T15:22:50.483Z,5.00
2019-03-04T15:25:27.638Z,4.80
2019-03-04T15:28:16.495Z,4.30
2019-03-04T16:25:42.751Z,3.30
2019-03-04T16:28:17.937Z,3.30
2019-03-04T16:41:18.058Z,3.40
2019-03-04T16:43:48.766Z,3.40
2019-03-04T16:46:19.444Z,3.30
2019-03-04T16:49:11.403Z,3.10
2019-03-04T16:51:49.752Z,3.00
2019-03-04T16:54:20.700Z,2.80
2019-03-04T16:56:51.568Z,2.70
2019-03-04T16:59:22.049Z,2.60
2019-03-04T17:01:52.528Z,2.50
2019-03-04T17:04:23.388Z,2.40
2019-03-04T17:06:54.337Z,2.40
2019-03-04T17:09:43.238Z,2.30
2019-03-04T17:12:17.112Z,2.30
2019-03-04T17:14:47.658Z,2.20
2019-03-04T17:17:18.281Z,2.30
2019-03-04T17:19:49.599Z,2.30
2019-03-04T17:22:20.359Z,2.30
2019-03-04T17:24:52.631Z,2.20
2019-03-04T17:27:23.455Z,2.20
2019-03-04T17:29:54.095Z,2.10
2019-03-04T17:32:24.975Z,2.00
2019-03-04T17:34:55.419Z,1.90
2019-03-04T17:37:26.706Z,1.80
2019-03-04T17:39:58.035Z,1.70
2019-03-04T17:42:31.628Z,1.60
2019-03-04T17:45:09.282Z,1.60
2019-03-04T17:47:40.183Z,1.50
2019-03-04T17:50:15.112Z,1.40
2019-03-04T17:52:45.916Z,1.40
2019-03-04T21:08:37.161Z,1.00
2019-03-04T21:11:07.893Z,1.20
2019-03-04T21:13:38.702Z,1.20
2019-03-04T21:19:49.593Z,1.10
2019-03-04T21:46:48.701Z,1.20
2019-03-04T22:13:39.803Z,1.70
2019-03-04T22:16:40.447Z,1.70
2019-03-04T22:19:17.730Z,1.70
2019-03-04T22:24:53.602Z,1.80
2019-03-04T22:27:40.815Z,1.80
2019-03-04T22:33:24.255Z,1.80
2019-03-04T22:36:02.528Z,1.70
2019-03-04T22:41:57.966Z,1.60
2019-03-04T22:44:35.379Z,1.50
2019-03-04T22:47:07.009Z,1.50
2019-03-04T22:49:37.978Z,1.60
2019-03-04T22:52:08.547Z,1.60
2019-03-04T23:52:46.865Z,1.80
2019-03-04T23:55:17.546Z,1.80
2019-03-04T23:57:47.962Z,1.80
